sensor_id;sensor_type;location;lat;lon;timestamp;P1;durP1;ratioP1;P2;durP2;ratioP2
21101;SDS011;10709;49.006;12.100;2022-07-17T00:01:28;4.50;;;3.38;;
21101;SDS011;10709;49.006;12.100;2022-07-17T00:03:55;4.80;;;3.33;;
21101;SDS011;10709;49.006;12.100;2022-07-17T00:06:23;4.28;;;2.90;;
21101;SDS011;10709;49.006;12.100;2022-07-17T00:08:49;5.63;;;3.22;;
21101;SDS011;10709;49.006;12.100;2022-07-17T00:11:16;4.15;;;2.75;;
21101;SDS011;10709;49.006;12.100;2022-07-17T00:13:42;3.50;;;2.92;;
21101;SDS011;10709;49.006;12.100;2022-07-17T00:16:09;3.00;;;2.60;;
21101;SDS011;10709;49.006;12.100;2022-07-17T00:18:36;3.33;;;2.60;;
21101;SDS011;10709;49.006;12.100;2022-07-17T00:21:02;2.95;;;2.50;;
21101;SDS011;10709;49.006;12.100;2022-07-17T00:23:29;3.67;;;3.15;;
21101;SDS011;10709;49.006;12.100;2022-07-17T00:25:55;3.10;;;2.65;;
21101;SDS011;10709;49.006;12.100;2022-07-17T00:28:22;3.25;;;2.95;;
21101;SDS011;10709;49.006;12.100;2022-07-17T00:30:48;4.97;;;2.97;;
21101;SDS011;10709;49.006;12.100;2022-07-17T00:33:15;3.80;;;2.67;;
21101;SDS011;10709;49.006;12.100;2022-07-17T00:35:41;6.45;;;3.42;;
21101;SDS011;10709;49.006;12.100;2022-07-17T00:38:08;3.08;;;2.80;;
21101;SDS011;10709;49.006;12.100;2022-07-17T00:40:36;3.95;;;3.10;;
21101;SDS011;10709;49.006;12.100;2022-07-17T00:43:02;4.20;;;3.25;;
21101;SDS011;10709;49.006;12.100;2022-07-17T00:45:29;6.32;;;3.28;;
21101;SDS011;10709;49.006;12.100;2022-07-17T00:47:56;3.65;;;3.08;;
21101;SDS011;10709;49.006;12.100;2022-07-17T00:50:25;5.28;;;3.15;;
21101;SDS011;10709;49.006;12.100;2022-07-17T00:52:54;4.00;;;3.05;;
21101;SDS011;10709;49.006;12.100;2022-07-17T00:55:21;9.88;;;3.08;;
21101;SDS011;10709;49.006;12.100;2022-07-17T00:58:08;3.33;;;2.50;;
21101;SDS011;10709;49.006;12.100;2022-07-17T01:00:37;3.40;;;2.90;;
21101;SDS011;10709;49.006;12.100;2022-07-17T01:03:04;3.80;;;2.80;;
21101;SDS011;10709;49.006;12.100;2022-07-17T01:05:31;5.45;;;2.95;;
21101;SDS011;10709;49.006;12.100;2022-07-17T01:07:59;4.95;;;3.08;;
21101;SDS011;10709;49.006;12.100;2022-07-17T01:10:26;3.60;;;3.30;;
21101;SDS011;10709;49.006;12.100;2022-07-17T01:12:52;7.07;;;3.28;;
21101;SDS011;10709;49.006;12.100;2022-07-17T01:15:19;5.60;;;3.47;;
21101;SDS011;10709;49.006;12.100;2022-07-17T01:17:45;4.03;;;3.03;;
21101;SDS011;10709;49.006;12.100;2022-07-17T01:20:13;5.20;;;3.38;;
21101;SDS011;10709;49.006;12.100;2022-07-17T01:22:48;5.03;;;3.03;;
21101;SDS011;10709;49.006;12.100;2022-07-17T01:25:18;4.07;;;2.88;;
21101;SDS011;10709;49.006;12.100;2022-07-17T01:27:46;3.15;;;2.85;;
21101;SDS011;10709;49.006;12.100;2022-07-17T01:30:13;3.10;;;2.80;;
21101;SDS011;10709;49.006;12.100;2022-07-17T01:32:40;4.70;;;3.40;;
21101;SDS011;10709;49.006;12.100;2022-07-17T01:35:08;3.45;;;3.03;;
21101;SDS011;10709;49.006;12.100;2022-07-17T01:37:37;5.78;;;3.47;;
21101;SDS011;10709;49.006;12.100;2022-07-17T01:40:05;3.25;;;2.85;;
21101;SDS011;10709;49.006;12.100;2022-07-17T01:42:32;5.15;;;3.20;;
21101;SDS011;10709;49.006;12.100;2022-07-17T01:44:58;3.20;;;2.90;;
21101;SDS011;10709;49.006;12.100;2022-07-17T01:47:25;3.40;;;2.70;;
21101;SDS011;10709;49.006;12.100;2022-07-17T01:49:53;3.78;;;2.97;;
21101;SDS011;10709;49.006;12.100;2022-07-17T01:52:21;4.13;;;2.97;;
21101;SDS011;10709;49.006;12.100;2022-07-17T01:54:49;5.30;;;3.10;;
21101;SDS011;10709;49.006;12.100;2022-07-17T01:57:17;4.28;;;3.25;;
21101;SDS011;10709;49.006;12.100;2022-07-17T01:59:44;4.67;;;3.07;;
21101;SDS011;10709;49.006;12.100;2022-07-17T02:02:11;5.13;;;3.33;;
21101;SDS011;10709;49.006;12.100;2022-07-17T02:04:38;5.45;;;3.70;;
21101;SDS011;10709;49.006;12.100;2022-07-17T02:07:08;6.88;;;4.35;;
21101;SDS011;10709;49.006;12.100;2022-07-17T02:09:35;4.40;;;3.20;;
21101;SDS011;10709;49.006;12.100;2022-07-17T02:12:02;3.55;;;2.90;;
21101;SDS011;10709;49.006;12.100;2022-07-17T02:14:29;4.32;;;3.40;;
21101;SDS011;10709;49.006;12.100;2022-07-17T02:16:56;4.13;;;3.53;;
21101;SDS011;10709;49.006;12.100;2022-07-17T02:19:23;4.88;;;3.42;;
21101;SDS011;10709;49.006;12.100;2022-07-17T02:21:49;3.67;;;3.03;;
21101;SDS011;10709;49.006;12.100;2022-07-17T02:24:16;4.80;;;3.77;;
21101;SDS011;10709;49.006;12.100;2022-07-17T02:26:42;3.45;;;3.15;;
21101;SDS011;10709;49.006;12.100;2022-07-17T02:29:09;5.60;;;3.30;;
21101;SDS011;10709;49.006;12.100;2022-07-17T02:31:36;4.93;;;3.50;;
21101;SDS011;10709;49.006;12.100;2022-07-17T02:34:02;5.57;;;3.37;;
21101;SDS011;10709;49.006;12.100;2022-07-17T02:36:29;3.73;;;3.00;;
21101;SDS011;10709;49.006;12.100;2022-07-17T02:38:55;5.32;;;3.80;;
21101;SDS011;10709;49.006;12.100;2022-07-17T02:41:22;4.15;;;3.25;;
21101;SDS011;10709;49.006;12.100;2022-07-17T02:43:49;4.30;;;3.03;;
21101;SDS011;10709;49.006;12.100;2022-07-17T02:46:16;4.90;;;3.17;;
21101;SDS011;10709;49.006;12.100;2022-07-17T02:48:42;4.33;;;3.00;;
21101;SDS011;10709;49.006;12.100;2022-07-17T02:51:09;3.40;;;3.10;;
21101;SDS011;10709;49.006;12.100;2022-07-17T02:53:36;5.05;;;3.90;;
21101;SDS011;10709;49.006;12.100;2022-07-17T02:56:02;3.73;;;3.00;;
21101;SDS011;10709;49.006;12.100;2022-07-17T02:58:30;6.25;;;3.50;;
21101;SDS011;10709;49.006;12.100;2022-07-17T03:00:56;3.57;;;3.23;;
21101;SDS011;10709;49.006;12.100;2022-07-17T03:03:23;5.27;;;3.70;;
21101;SDS011;10709;49.006;12.100;2022-07-17T03:05:49;5.10;;;3.57;;
21101;SDS011;10709;49.006;12.100;2022-07-17T03:08:16;4.07;;;3.13;;
21101;SDS011;10709;49.006;12.100;2022-07-17T03:10:42;4.13;;;3.33;;
21101;SDS011;10709;49.006;12.100;2022-07-17T03:13:09;3.93;;;3.10;;
21101;SDS011;10709;49.006;12.100;2022-07-17T03:15:36;3.20;;;2.90;;
21101;SDS011;10709;49.006;12.100;2022-07-17T03:18:02;5.50;;;3.10;;
21101;SDS011;10709;49.006;12.100;2022-07-17T03:20:29;5.07;;;2.83;;
21101;SDS011;10709;49.006;12.100;2022-07-17T03:22:56;4.47;;;3.10;;
21101;SDS011;10709;49.006;12.100;2022-07-17T03:25:23;4.93;;;3.40;;
21101;SDS011;10709;49.006;12.100;2022-07-17T03:27:49;4.63;;;3.37;;
21101;SDS011;10709;49.006;12.100;2022-07-17T03:30:15;4.80;;;3.60;;
21101;SDS011;10709;49.006;12.100;2022-07-17T03:32:42;4.13;;;3.17;;
21101;SDS011;10709;49.006;12.100;2022-07-17T03:35:08;4.50;;;3.30;;
21101;SDS011;10709;49.006;12.100;2022-07-17T03:37:35;4.00;;;2.77;;
21101;SDS011;10709;49.006;12.100;2022-07-17T03:40:04;4.50;;;3.57;;
21101;SDS011;10709;49.006;12.100;2022-07-17T03:42:32;3.73;;;2.80;;
21101;SDS011;10709;49.006;12.100;2022-07-17T03:44:59;5.37;;;3.17;;
21101;SDS011;10709;49.006;12.100;2022-07-17T03:47:25;4.23;;;3.07;;
21101;SDS011;10709;49.006;12.100;2022-07-17T03:49:52;5.67;;;3.10;;
21101;SDS011;10709;49.006;12.100;2022-07-17T03:52:18;3.80;;;2.97;;
21101;SDS011;10709;49.006;12.100;2022-07-17T03:54:45;3.83;;;3.17;;
21101;SDS011;10709;49.006;12.100;2022-07-17T03:57:11;3.37;;;2.83;;
21101;SDS011;10709;49.006;12.100;2022-07-17T03:59:38;3.50;;;2.50;;
21101;SDS011;10709;49.006;12.100;2022-07-17T04:02:04;3.93;;;2.87;;
21101;SDS011;10709;49.006;12.100;2022-07-17T04:04:31;4.27;;;2.90;;
21101;SDS011;10709;49.006;12.100;2022-07-17T04:06:57;3.30;;;2.90;;
21101;SDS011;10709;49.006;12.100;2022-07-17T04:09:23;4.13;;;2.70;;
21101;SDS011;10709;49.006;12.100;2022-07-17T04:11:50;7.10;;;2.83;;
21101;SDS011;10709;49.006;12.100;2022-07-17T04:14:16;3.00;;;2.70;;
21101;SDS011;10709;49.006;12.100;2022-07-17T04:16:43;3.63;;;2.73;;
21101;SDS011;10709;49.006;12.100;2022-07-17T04:19:10;3.37;;;3.00;;
21101;SDS011;10709;49.006;12.100;2022-07-17T04:21:37;3.33;;;2.50;;
21101;SDS011;10709;49.006;12.100;2022-07-17T04:24:03;3.73;;;2.60;;
21101;SDS011;10709;49.006;12.100;2022-07-17T04:26:30;5.13;;;3.40;;
21101;SDS011;10709;49.006;12.100;2022-07-17T04:28:59;5.53;;;2.70;;
21101;SDS011;10709;49.006;12.100;2022-07-17T04:31:25;4.17;;;3.20;;
21101;SDS011;10709;49.006;12.100;2022-07-17T04:33:52;3.37;;;2.97;;
21101;SDS011;10709;49.006;12.100;2022-07-17T04:36:20;4.40;;;2.97;;
21101;SDS011;10709;49.006;12.100;2022-07-17T04:38:46;4.60;;;2.90;;
21101;SDS011;10709;49.006;12.100;2022-07-17T04:41:13;4.10;;;2.80;;
21101;SDS011;10709;49.006;12.100;2022-07-17T04:43:39;4.03;;;3.20;;
21101;SDS011;10709;49.006;12.100;2022-07-17T04:46:05;3.80;;;2.77;;
21101;SDS011;10709;49.006;12.100;2022-07-17T04:48:32;5.10;;;2.73;;
21101;SDS011;10709;49.006;12.100;2022-07-17T04:50:58;4.10;;;2.80;;
21101;SDS011;10709;49.006;12.100;2022-07-17T04:53:25;6.30;;;2.70;;
21101;SDS011;10709;49.006;12.100;2022-07-17T04:55:51;4.40;;;2.40;;
21101;SDS011;10709;49.006;12.100;2022-07-17T04:58:18;4.27;;;2.77;;
21101;SDS011;10709;49.006;12.100;2022-07-17T05:00:44;4.63;;;2.40;;
21101;SDS011;10709;49.006;12.100;2022-07-17T05:03:11;4.17;;;2.73;;
21101;SDS011;10709;49.006;12.100;2022-07-17T05:05:38;5.27;;;2.60;;
21101;SDS011;10709;49.006;12.100;2022-07-17T05:08:06;4.97;;;2.40;;
21101;SDS011;10709;49.006;12.100;2022-07-17T05:10:33;4.43;;;2.40;;
21101;SDS011;10709;49.006;12.100;2022-07-17T05:12:59;4.17;;;2.67;;
21101;SDS011;10709;49.006;12.100;2022-07-17T05:15:26;4.07;;;2.37;;
21101;SDS011;10709;49.006;12.100;2022-07-17T05:17:52;5.83;;;2.37;;
21101;SDS011;10709;49.006;12.100;2022-07-17T05:20:19;4.37;;;2.50;;
21101;SDS011;10709;49.006;12.100;2022-07-17T05:22:45;4.77;;;2.53;;
21101;SDS011;10709;49.006;12.100;2022-07-17T05:25:12;3.40;;;2.30;;
21101;SDS011;10709;49.006;12.100;2022-07-17T05:27:39;5.43;;;2.60;;
21101;SDS011;10709;49.006;12.100;2022-07-17T05:30:05;3.57;;;2.40;;
21101;SDS011;10709;49.006;12.100;2022-07-17T05:32:32;5.23;;;2.30;;
21101;SDS011;10709;49.006;12.100;2022-07-17T05:34:58;4.63;;;2.30;;
21101;SDS011;10709;49.006;12.100;2022-07-17T05:37:25;5.03;;;2.50;;
21101;SDS011;10709;49.006;12.100;2022-07-17T05:39:52;3.57;;;2.20;;
21101;SDS011;10709;49.006;12.100;2022-07-17T05:42:18;3.00;;;2.30;;
21101;SDS011;10709;49.006;12.100;2022-07-17T05:44:45;5.43;;;2.50;;
21101;SDS011;10709;49.006;12.100;2022-07-17T05:47:11;4.70;;;2.40;;
21101;SDS011;10709;49.006;12.100;2022-07-17T05:49:38;5.17;;;2.50;;
21101;SDS011;10709;49.006;12.100;2022-07-17T05:52:04;6.57;;;2.33;;
21101;SDS011;10709;49.006;12.100;2022-07-17T05:54:31;7.80;;;2.40;;
21101;SDS011;10709;49.006;12.100;2022-07-17T05:57:01;4.00;;;2.17;;
21101;SDS011;10709;49.006;12.100;2022-07-17T05:59:35;3.63;;;1.83;;
21101;SDS011;10709;49.006;12.100;2022-07-17T06:02:02;3.80;;;2.20;;
21101;SDS011;10709;49.006;12.100;2022-07-17T06:04:28;3.73;;;2.27;;
21101;SDS011;10709;49.006;12.100;2022-07-17T06:06:55;4.50;;;2.40;;
21101;SDS011;10709;49.006;12.100;2022-07-17T06:09:21;3.13;;;2.40;;
21101;SDS011;10709;49.006;12.100;2022-07-17T06:11:47;2.57;;;2.03;;
21101;SDS011;10709;49.006;12.100;2022-07-17T06:14:14;5.10;;;2.37;;
21101;SDS011;10709;49.006;12.100;2022-07-17T06:16:40;2.63;;;2.10;;
21101;SDS011;10709;49.006;12.100;2022-07-17T06:19:07;5.63;;;2.20;;
21101;SDS011;10709;49.006;12.100;2022-07-17T06:21:33;2.97;;;2.20;;
21101;SDS011;10709;49.006;12.100;2022-07-17T06:24:00;3.40;;;2.10;;
21101;SDS011;10709;49.006;12.100;2022-07-17T06:26:27;5.00;;;2.30;;
21101;SDS011;10709;49.006;12.100;2022-07-17T06:28:53;3.63;;;2.30;;
21101;SDS011;10709;49.006;12.100;2022-07-17T06:31:19;6.07;;;2.03;;
21101;SDS011;10709;49.006;12.100;2022-07-17T06:33:47;3.43;;;2.03;;
21101;SDS011;10709;49.006;12.100;2022-07-17T06:36:14;2.80;;;2.00;;
21101;SDS011;10709;49.006;12.100;2022-07-17T06:38:40;4.90;;;2.00;;
21101;SDS011;10709;49.006;12.100;2022-07-17T06:41:07;4.15;;;1.75;;
21101;SDS011;10709;49.006;12.100;2022-07-17T06:43:33;4.15;;;2.17;;
21101;SDS011;10709;49.006;12.100;2022-07-17T06:45:59;4.83;;;2.10;;
21101;SDS011;10709;49.006;12.100;2022-07-17T06:48:26;3.45;;;1.80;;
21101;SDS011;10709;49.006;12.100;2022-07-17T06:50:52;3.25;;;1.80;;
21101;SDS011;10709;49.006;12.100;2022-07-17T06:53:19;5.85;;;2.30;;
21101;SDS011;10709;49.006;12.100;2022-07-17T06:55:45;3.15;;;2.17;;
21101;SDS011;10709;49.006;12.100;2022-07-17T06:58:12;4.32;;;1.85;;
21101;SDS011;10709;49.006;12.100;2022-07-17T07:00:39;3.40;;;1.88;;
21101;SDS011;10709;49.006;12.100;2022-07-17T07:03:06;4.40;;;1.90;;
21101;SDS011;10709;49.006;12.100;2022-07-17T07:05:33;3.08;;;1.90;;
21101;SDS011;10709;49.006;12.100;2022-07-17T07:08:00;2.15;;;1.73;;
21101;SDS011;10709;49.006;12.100;2022-07-17T07:10:27;3.67;;;2.20;;
21101;SDS011;10709;49.006;12.100;2022-07-17T07:12:54;5.03;;;2.33;;
21101;SDS011;10709;49.006;12.100;2022-07-17T07:15:20;3.58;;;1.80;;
21101;SDS011;10709;49.006;12.100;2022-07-17T07:17:47;4.00;;;2.00;;
21101;SDS011;10709;49.006;12.100;2022-07-17T07:20:14;2.92;;;2.10;;
21101;SDS011;10709;49.006;12.100;2022-07-17T07:22:40;3.47;;;1.95;;
21101;SDS011;10709;49.006;12.100;2022-07-17T07:25:07;4.57;;;1.70;;
21101;SDS011;10709;49.006;12.100;2022-07-17T07:27:34;4.50;;;2.08;;
21101;SDS011;10709;49.006;12.100;2022-07-17T07:30:01;1.75;;;1.65;;
21101;SDS011;10709;49.006;12.100;2022-07-17T07:32:27;2.30;;;1.70;;
21101;SDS011;10709;49.006;12.100;2022-07-17T07:34:54;3.15;;;1.63;;
21101;SDS011;10709;49.006;12.100;2022-07-17T07:37:20;2.10;;;1.60;;
21101;SDS011;10709;49.006;12.100;2022-07-17T07:39:47;2.13;;;1.70;;
21101;SDS011;10709;49.006;12.100;2022-07-17T07:42:14;2.58;;;1.70;;
21101;SDS011;10709;49.006;12.100;2022-07-17T07:44:40;2.55;;;1.60;;
21101;SDS011;10709;49.006;12.100;2022-07-17T07:47:06;1.88;;;1.65;;
21101;SDS011;10709;49.006;12.100;2022-07-17T07:49:33;3.55;;;2.00;;
21101;SDS011;10709;49.006;12.100;2022-07-17T07:52:05;3.00;;;1.80;;
21101;SDS011;10709;49.006;12.100;2022-07-17T07:54:32;3.00;;;1.80;;
21101;SDS011;10709;49.006;12.100;2022-07-17T07:56:59;3.25;;;1.92;;
21101;SDS011;10709;49.006;12.100;2022-07-17T07:59:26;3.55;;;1.77;;
21101;SDS011;10709;49.006;12.100;2022-07-17T08:01:53;1.88;;;1.60;;
21101;SDS011;10709;49.006;12.100;2022-07-17T08:04:19;4.85;;;1.83;;
21101;SDS011;10709;49.006;12.100;2022-07-17T08:06:46;3.80;;;2.00;;
21101;SDS011;10709;49.006;12.100;2022-07-17T08:09:12;2.50;;;1.80;;
21101;SDS011;10709;49.006;12.100;2022-07-17T08:11:39;2.33;;;1.90;;
21101;SDS011;10709;49.006;12.100;2022-07-17T08:14:05;3.60;;;1.73;;
21101;SDS011;10709;49.006;12.100;2022-07-17T08:16:41;3.72;;;1.90;;
21101;SDS011;10709;49.006;12.100;2022-07-17T08:19:08;2.15;;;1.60;;
21101;SDS011;10709;49.006;12.100;2022-07-17T08:21:35;2.53;;;1.63;;
21101;SDS011;10709;49.006;12.100;2022-07-17T08:24:01;4.30;;;1.83;;
21101;SDS011;10709;49.006;12.100;2022-07-17T08:26:28;2.00;;;1.80;;
21101;SDS011;10709;49.006;12.100;2022-07-17T08:28:55;3.28;;;2.03;;
21101;SDS011;10709;49.006;12.100;2022-07-17T08:31:21;2.92;;;1.80;;
21101;SDS011;10709;49.006;12.100;2022-07-17T08:33:48;3.30;;;1.70;;
21101;SDS011;10709;49.006;12.100;2022-07-17T08:36:14;2.17;;;1.80;;
21101;SDS011;10709;49.006;12.100;2022-07-17T08:38:41;6.07;;;1.80;;
21101;SDS011;10709;49.006;12.100;2022-07-17T08:41:08;2.65;;;1.58;;
21101;SDS011;10709;49.006;12.100;2022-07-17T08:43:36;4.10;;;1.92;;
21101;SDS011;10709;49.006;12.100;2022-07-17T08:46:11;2.00;;;1.60;;
21101;SDS011;10709;49.006;12.100;2022-07-17T08:48:42;2.20;;;1.50;;
21101;SDS011;10709;49.006;12.100;2022-07-17T08:51:11;2.55;;;1.60;;
21101;SDS011;10709;49.006;12.100;2022-07-17T08:53:41;2.95;;;1.80;;
21101;SDS011;10709;49.006;12.100;2022-07-17T08:56:08;3.05;;;1.70;;
21101;SDS011;10709;49.006;12.100;2022-07-17T08:58:36;2.85;;;1.80;;
21101;SDS011;10709;49.006;12.100;2022-07-17T09:01:03;1.88;;;1.70;;
21101;SDS011;10709;49.006;12.100;2022-07-17T09:03:29;2.88;;;1.70;;
21101;SDS011;10709;49.006;12.100;2022-07-17T09:05:56;1.92;;;1.73;;
21101;SDS011;10709;49.006;12.100;2022-07-17T09:08:23;4.18;;;1.90;;
21101;SDS011;10709;49.006;12.100;2022-07-17T09:10:51;3.33;;;1.90;;
21101;SDS011;10709;49.006;12.100;2022-07-17T09:13:29;2.72;;;1.50;;
21101;SDS011;10709;49.006;12.100;2022-07-17T09:16:05;1.70;;;1.45;;
21101;SDS011;10709;49.006;12.100;2022-07-17T09:21:16;3.55;;;1.60;;
21101;SDS011;10709;49.006;12.100;2022-07-17T09:26:46;2.67;;;1.77;;
21101;SDS011;10709;49.006;12.100;2022-07-17T09:29:13;2.03;;;1.60;;
21101;SDS011;10709;49.006;12.100;2022-07-17T09:31:39;2.85;;;1.70;;
21101;SDS011;10709;49.006;12.100;2022-07-17T09:34:15;2.17;;;1.60;;
21101;SDS011;10709;49.006;12.100;2022-07-17T09:36:43;2.53;;;1.60;;
21101;SDS011;10709;49.006;12.100;2022-07-17T09:39:09;1.60;;;1.50;;
21101;SDS011;10709;49.006;12.100;2022-07-17T09:41:35;2.15;;;1.40;;
21101;SDS011;10709;49.006;12.100;2022-07-17T09:44:02;2.45;;;1.40;;
21101;SDS011;10709;49.006;12.100;2022-07-17T09:46:30;1.73;;;1.50;;
21101;SDS011;10709;49.006;12.100;2022-07-17T09:49:00;1.52;;;1.40;;
21101;SDS011;10709;49.006;12.100;2022-07-17T09:51:29;1.70;;;1.50;;
21101;SDS011;10709;49.006;12.100;2022-07-17T09:54:01;2.95;;;1.73;;
21101;SDS011;10709;49.006;12.100;2022-07-17T09:56:30;1.80;;;1.60;;
21101;SDS011;10709;49.006;12.100;2022-07-17T09:59:20;2.55;;;2.15;;
21101;SDS011;10709;49.006;12.100;2022-07-17T10:01:45;2.88;;;1.80;;
21101;SDS011;10709;49.006;12.100;2022-07-17T10:04:16;2.65;;;1.60;;
21101;SDS011;10709;49.006;12.100;2022-07-17T10:06:43;1.90;;;1.60;;
21101;SDS011;10709;49.006;12.100;2022-07-17T10:09:10;2.28;;;1.50;;
21101;SDS011;10709;49.006;12.100;2022-07-17T10:11:37;2.20;;;1.50;;
21101;SDS011;10709;49.006;12.100;2022-07-17T10:14:13;2.38;;;1.55;;
21101;SDS011;10709;49.006;12.100;2022-07-17T10:16:41;3.70;;;1.73;;
21101;SDS011;10709;49.006;12.100;2022-07-17T10:19:21;3.20;;;1.40;;
21101;SDS011;10709;49.006;12.100;2022-07-17T10:21:58;1.38;;;1.17;;
21101;SDS011;10709;49.006;12.100;2022-07-17T10:24:27;1.63;;;1.50;;
21101;SDS011;10709;49.006;12.100;2022-07-17T10:26:56;5.30;;;1.90;;
21101;SDS011;10709;49.006;12.100;2022-07-17T10:29:33;2.15;;;1.50;;
21101;SDS011;10709;49.006;12.100;2022-07-17T10:32:17;2.88;;;1.40;;
21101;SDS011;10709;49.006;12.100;2022-07-17T10:34:48;1.98;;;1.48;;
21101;SDS011;10709;49.006;12.100;2022-07-17T10:40:11;2.33;;;1.30;;
21101;SDS011;10709;49.006;12.100;2022-07-17T10:42:52;2.63;;;1.30;;
21101;SDS011;10709;49.006;12.100;2022-07-17T10:45:24;1.83;;;1.20;;
21101;SDS011;10709;49.006;12.100;2022-07-17T10:47:55;2.97;;;1.52;;
21101;SDS011;10709;49.006;12.100;2022-07-17T10:50:32;2.22;;;1.38;;
21101;SDS011;10709;49.006;12.100;2022-07-17T10:55:34;2.65;;;1.40;;
21101;SDS011;10709;49.006;12.100;2022-07-17T11:03:37;3.33;;;1.30;;
21101;SDS011;10709;49.006;12.100;2022-07-17T11:08:40;2.20;;;1.50;;
21101;SDS011;10709;49.006;12.100;2022-07-17T11:11:16;2.28;;;1.35;;
21101;SDS011;10709;49.006;12.100;2022-07-17T11:13:54;1.77;;;1.40;;
21101;SDS011;10709;49.006;12.100;2022-07-17T11:16:23;2.35;;;1.45;;
21101;SDS011;10709;49.006;12.100;2022-07-17T11:18:51;2.38;;;1.40;;
21101;SDS011;10709;49.006;12.100;2022-07-17T11:21:18;2.67;;;1.42;;
21101;SDS011;10709;49.006;12.100;2022-07-17T11:23:52;4.68;;;1.40;;
21101;SDS011;10709;49.006;12.100;2022-07-17T11:26:19;1.70;;;1.20;;
21101;SDS011;10709;49.006;12.100;2022-07-17T11:28:47;1.80;;;1.13;;
21101;SDS011;10709;49.006;12.100;2022-07-17T11:33:52;3.63;;;1.40;;
21101;SDS011;10709;49.006;12.100;2022-07-17T11:36:22;1.88;;;1.20;;
21101;SDS011;10709;49.006;12.100;2022-07-17T11:38:48;4.82;;;1.40;;
21101;SDS011;10709;49.006;12.100;2022-07-17T11:41:15;1.77;;;1.30;;
21101;SDS011;10709;49.006;12.100;2022-07-17T11:43:44;1.58;;;1.30;;
21101;SDS011;10709;49.006;12.100;2022-07-17T11:46:13;2.25;;;1.30;;
21101;SDS011;10709;49.006;12.100;2022-07-17T11:48:43;2.75;;;1.30;;
21101;SDS011;10709;49.006;12.100;2022-07-17T11:51:10;2.08;;;1.20;;
21101;SDS011;10709;49.006;12.100;2022-07-17T11:53:37;1.42;;;1.10;;
21101;SDS011;10709;49.006;12.100;2022-07-17T11:56:04;2.47;;;1.20;;
21101;SDS011;10709;49.006;12.100;2022-07-17T11:58:42;3.15;;;1.30;;
21101;SDS011;10709;49.006;12.100;2022-07-17T12:01:11;1.45;;;1.15;;
21101;SDS011;10709;49.006;12.100;2022-07-17T12:03:38;1.77;;;1.08;;
21101;SDS011;10709;49.006;12.100;2022-07-17T12:06:06;2.83;;;1.30;;
21101;SDS011;10709;49.006;12.100;2022-07-17T12:08:33;2.15;;;1.20;;
21101;SDS011;10709;49.006;12.100;2022-07-17T12:11:04;1.75;;;1.00;;
21101;SDS011;10709;49.006;12.100;2022-07-17T12:13:37;1.30;;;1.20;;
21101;SDS011;10709;49.006;12.100;2022-07-17T12:16:23;1.50;;;1.08;;
21101;SDS011;10709;49.006;12.100;2022-07-17T12:18:59;1.70;;;1.15;;
21101;SDS011;10709;49.006;12.100;2022-07-17T12:21:30;2.15;;;1.20;;
21101;SDS011;10709;49.006;12.100;2022-07-17T12:24:00;2.00;;;1.25;;
21101;SDS011;10709;49.006;12.100;2022-07-17T12:26:29;2.15;;;1.20;;
21101;SDS011;10709;49.006;12.100;2022-07-17T12:28:57;1.95;;;1.30;;
21101;SDS011;10709;49.006;12.100;2022-07-17T12:31:27;1.50;;;1.10;;
21101;SDS011;10709;49.006;12.100;2022-07-17T12:33:54;1.58;;;1.13;;
21101;SDS011;10709;49.006;12.100;2022-07-17T12:36:21;1.27;;;1.08;;
21101;SDS011;10709;49.006;12.100;2022-07-17T12:38:48;1.52;;;1.00;;
21101;SDS011;10709;49.006;12.100;2022-07-17T12:41:15;1.48;;;1.15;;
21101;SDS011;10709;49.006;12.100;2022-07-17T12:43:42;1.10;;;1.00;;
21101;SDS011;10709;49.006;12.100;2022-07-17T12:46:09;1.25;;;1.00;;
21101;SDS011;10709;49.006;12.100;2022-07-17T12:48:42;1.63;;;1.15;;
21101;SDS011;10709;49.006;12.100;2022-07-17T12:51:09;2.13;;;1.15;;
21101;SDS011;10709;49.006;12.100;2022-07-17T12:53:39;2.03;;;1.10;;
21101;SDS011;10709;49.006;12.100;2022-07-17T12:56:07;1.63;;;1.27;;
21101;SDS011;10709;49.006;12.100;2022-07-17T12:58:34;2.17;;;1.20;;
21101;SDS011;10709;49.006;12.100;2022-07-17T13:01:02;1.48;;;1.10;;
21101;SDS011;10709;49.006;12.100;2022-07-17T13:03:30;1.15;;;1.00;;
21101;SDS011;10709;49.006;12.100;2022-07-17T13:05:58;1.80;;;0.90;;
21101;SDS011;10709;49.006;12.100;2022-07-17T13:08:27;1.90;;;1.30;;
21101;SDS011;10709;49.006;12.100;2022-07-17T13:10:54;2.05;;;1.20;;
21101;SDS011;10709;49.006;12.100;2022-07-17T13:13:21;3.20;;;1.13;;
21101;SDS011;10709;49.006;12.100;2022-07-17T13:15:49;2.13;;;0.98;;
21101;SDS011;10709;49.006;12.100;2022-07-17T13:18:15;1.10;;;1.00;;
21101;SDS011;10709;49.006;12.100;2022-07-17T13:20:42;2.78;;;1.15;;
21101;SDS011;10709;49.006;12.100;2022-07-17T13:23:09;5.57;;;1.17;;
21101;SDS011;10709;49.006;12.100;2022-07-17T13:25:36;1.55;;;1.20;;
21101;SDS011;10709;49.006;12.100;2022-07-17T13:28:02;2.85;;;1.13;;
21101;SDS011;10709;49.006;12.100;2022-07-17T13:30:32;2.97;;;1.20;;
21101;SDS011;10709;49.006;12.100;2022-07-17T13:32:59;2.30;;;1.00;;
21101;SDS011;10709;49.006;12.100;2022-07-17T13:35:26;1.50;;;1.05;;
21101;SDS011;10709;49.006;12.100;2022-07-17T13:37:53;2.45;;;1.15;;
21101;SDS011;10709;49.006;12.100;2022-07-17T13:40:19;2.38;;;1.10;;
21101;SDS011;10709;49.006;12.100;2022-07-17T13:42:46;1.55;;;1.08;;
21101;SDS011;10709;49.006;12.100;2022-07-17T13:45:12;1.85;;;1.20;;
21101;SDS011;10709;49.006;12.100;2022-07-17T13:47:39;1.73;;;1.10;;
21101;SDS011;10709;49.006;12.100;2022-07-17T13:50:06;1.42;;;1.00;;
21101;SDS011;10709;49.006;12.100;2022-07-17T13:52:39;1.33;;;0.90;;
21101;SDS011;10709;49.006;12.100;2022-07-17T13:55:06;2.40;;;1.17;;
21101;SDS011;10709;49.006;12.100;2022-07-17T13:57:53;1.63;;;1.20;;
21101;SDS011;10709;49.006;12.100;2022-07-17T14:00:20;1.48;;;1.10;;
21101;SDS011;10709;49.006;12.100;2022-07-17T14:02:47;1.38;;;1.08;;
21101;SDS011;10709;49.006;12.100;2022-07-17T14:05:14;1.80;;;1.10;;
21101;SDS011;10709;49.006;12.100;2022-07-17T14:07:41;1.80;;;1.00;;
21101;SDS011;10709;49.006;12.100;2022-07-17T14:10:09;1.75;;;0.98;;
21101;SDS011;10709;49.006;12.100;2022-07-17T14:12:36;1.35;;;1.20;;
21101;SDS011;10709;49.006;12.100;2022-07-17T14:15:03;4.03;;;1.13;;
21101;SDS011;10709;49.006;12.100;2022-07-17T14:17:30;2.15;;;1.30;;
21101;SDS011;10709;49.006;12.100;2022-07-17T14:19:56;2.50;;;1.10;;
21101;SDS011;10709;49.006;12.100;2022-07-17T14:22:23;2.13;;;1.27;;
21101;SDS011;10709;49.006;12.100;2022-07-17T14:24:49;1.25;;;0.90;;
21101;SDS011;10709;49.006;12.100;2022-07-17T14:27:16;1.50;;;1.10;;
21101;SDS011;10709;49.006;12.100;2022-07-17T14:29:42;1.13;;;0.93;;
21101;SDS011;10709;49.006;12.100;2022-07-17T14:32:08;1.70;;;0.98;;
21101;SDS011;10709;49.006;12.100;2022-07-17T14:34:35;1.20;;;1.02;;
21101;SDS011;10709;49.006;12.100;2022-07-17T14:37:01;1.92;;;1.15;;
21101;SDS011;10709;49.006;12.100;2022-07-17T14:39:29;2.38;;;1.05;;
21101;SDS011;10709;49.006;12.100;2022-07-17T14:41:55;1.58;;;1.23;;
21101;SDS011;10709;49.006;12.100;2022-07-17T14:44:22;1.52;;;1.10;;
21101;SDS011;10709;49.006;12.100;2022-07-17T14:46:49;1.10;;;0.90;;
21101;SDS011;10709;49.006;12.100;2022-07-17T14:49:15;1.20;;;1.10;;
21101;SDS011;10709;49.006;12.100;2022-07-17T14:51:50;1.67;;;1.10;;
21101;SDS011;10709;49.006;12.100;2022-07-17T14:54:18;3.33;;;1.30;;
21101;SDS011;10709;49.006;12.100;2022-07-17T14:56:44;2.35;;;1.00;;
21101;SDS011;10709;49.006;12.100;2022-07-17T14:59:11;1.67;;;0.90;;